Time;durP1;ratioP1;P1;durP2;ratioP2;P2;SDS_P1;SDS_P2;PMS_P1;PMS_P2;Temp;Humidity;BMP_temperature;BMP_pressure;BME280_temperature;BME280_humidity;BME280_pressure;Samples;Min_cycle;Max_cycle;Signal;HPM_P1;HPM_P2
2023/04/30 00:01:20;;;;;;;11.23;6.40;;;11.30;99.90;;;;;;4894477;29;20044;-81
2023/04/30 00:03:46;;;;;;;9.20;6.78;;;11.40;99.90;;;;;;4896962;29;20032;-91
2023/04/30 00:06:12;;;;;;;9.77;6.45;;;11.40;99.90;;;;;;4894434;29;20036;-89
2023/04/30 00:08:39;;;;;;;9.18;7.57;;;11.30;99.90;;;;;;4897896;29;20040;-89
2023/04/30 00:11:05;;;;;;;10.88;7.20;;;11.30;99.90;;;;;;4896981;29;20025;-91
2023/04/30 00:13:31;;;;;;;9.75;6.63;;;11.30;99.90;;;;;;4873622;29;20048;-88
2023/04/30 00:15:57;;;;;;;11.20;7.40;;;11.30;99.90;;;;;;4892695;29;20055;-91
2023/04/30 00:18:23;;;;;;;10.35;6.95;;;11.30;99.90;;;;;;4877989;29;20103;-90
2023/04/30 00:20:52;;;;;;;11.07;6.85;;;11.30;99.90;;;;;;4877369;29;20043;-92
2023/04/30 00:23:18;;;;;;;8.75;6.32;;;11.30;99.90;;;;;;4879761;29;20478;-87
2023/04/30 00:25:44;;;;;;;9.38;5.82;;;11.30;99.90;;;;;;4893117;29;20040;-89
2023/04/30 00:28:10;;;;;;;8.75;6.30;;;11.30;99.90;;;;;;4879150;29;20395;-90
2023/04/30 00:30:36;;;;;;;9.57;6.45;;;11.30;99.90;;;;;;4894304;29;20032;-90
2023/04/30 00:33:03;;;;;;;10.52;6.53;;;11.30;99.90;;;;;;4896913;29;20033;-92
2023/04/30 00:35:29;;;;;;;11.43;6.28;;;11.20;99.90;;;;;;4884922;29;20040;-91
2023/04/30 00:37:55;;;;;;;8.07;6.60;;;11.20;99.90;;;;;;4876219;29;20037;-87
2023/04/30 00:40:21;;;;;;;11.27;6.93;;;11.20;99.90;;;;;;4895102;29;20454;-83
2023/04/30 00:42:47;;;;;;;7.38;5.75;;;11.10;99.90;;;;;;4871496;29;20406;-85
2023/04/30 00:45:13;;;;;;;8.13;5.78;;;11.10;99.90;;;;;;4894596;29;20036;-86
2023/04/30 00:47:40;;;;;;;9.15;6.70;;;11.10;99.90;;;;;;4879142;29;20044;-90
2023/04/30 00:50:06;;;;;;;17.40;9.15;;;11.10;99.90;;;;;;4893457;29;20033;-92
2023/04/30 00:52:32;;;;;;;10.90;6.70;;;11.10;99.90;;;;;;4893100;29;20036;-87
2023/04/30 00:54:59;;;;;;;9.38;6.85;;;11.10;99.90;;;;;;4892464;29;20036;-82
2023/04/30 00:57:26;;;;;;;12.18;6.00;;;11.10;99.90;;;;;;4892355;29;20061;-87
2023/04/30 00:59:56;;;;;;;12.60;8.02;;;11.00;99.90;;;;;;4889371;29;20056;-88
2023/04/30 01:02:22;;;;;;;10.98;7.75;;;11.10;99.90;;;;;;4894313;29;20033;-88
2023/04/30 01:04:49;;;;;;;9.80;7.28;;;11.00;99.90;;;;;;4890145;29;20052;-87
2023/04/30 01:07:15;;;;;;;8.50;6.53;;;11.00;99.90;;;;;;4888980;29;20067;-88
2023/04/30 01:09:42;;;;;;;11.25;7.05;;;11.00;99.90;;;;;;4873872;29;20045;-90
2023/04/30 01:12:11;;;;;;;12.10;7.03;;;11.00;99.90;;;;;;4866406;29;20045;-87
2023/04/30 01:14:43;;;;;;;8.35;6.80;;;10.90;99.90;;;;;;4897807;29;20045;-84
2023/04/30 01:17:28;;;;;;;11.43;6.85;;;10.90;99.90;;;;;;4878305;29;20047;-87
2023/04/30 01:19:55;;;;;;;11.15;6.93;;;10.90;99.90;;;;;;4875567;29;20044;-84
2023/04/30 01:22:27;;;;;;;12.77;8.02;;;10.90;99.90;;;;;;4897166;29;20042;-85
2023/04/30 01:25:12;;;;;;;10.77;7.10;;;10.90;99.90;;;;;;4896437;29;20032;-83
2023/04/30 01:27:50;;;;;;;9.15;6.70;;;10.90;99.90;;;;;;4874682;29;20060;-87
2023/04/30 01:30:17;;;;;;;10.10;7.43;;;10.90;99.90;;;;;;4871841;29;20056;-83
2023/04/30 01:32:44;;;;;;;10.40;6.53;;;10.90;99.90;;;;;;4897078;29;20111;-84
2023/04/30 01:35:11;;;;;;;9.77;7.85;;;10.80;99.90;;;;;;4881504;29;20326;-85
2023/04/30 01:37:49;;;;;;;12.00;6.43;;;10.80;99.90;;;;;;4895178;29;20036;-86
2023/04/30 01:40:35;;;;;;;8.27;6.63;;;10.90;99.90;;;;;;4896633;29;20029;-85
2023/04/30 01:43:07;;;;;;;9.50;7.95;;;10.80;99.90;;;;;;4899579;29;20052;-85
2023/04/30 01:45:52;;;;;;;9.43;7.50;;;10.80;99.90;;;;;;4878782;29;20052;-83
2023/04/30 01:48:39;;;;;;;11.40;6.70;;;10.80;99.90;;;;;;4892118;29;20048;-84
2023/04/30 01:51:08;;;;;;;8.63;6.63;;;10.80;99.90;;;;;;4865787;29;20052;-84
2023/04/30 01:53:43;;;;;;;7.97;6.50;;;10.80;99.90;;;;;;4893059;29;20048;-84
2023/04/30 01:56:17;;;;;;;9.23;7.43;;;10.80;99.90;;;;;;4890208;29;20500;-85
2023/04/30 01:58:45;;;;;;;11.75;6.80;;;10.80;99.90;;;;;;4885545;29;20074;-85
2023/04/30 02:01:31;;;;;;;10.13;6.85;;;10.80;99.90;;;;;;4887721;29;20049;-84
2023/04/30 02:03:58;;;;;;;12.07;7.53;;;10.80;99.90;;;;;;4892277;29;20044;-86
2023/04/30 02:06:29;;;;;;;10.10;7.43;;;10.80;99.90;;;;;;4895292;29;20037;-87
2023/04/30 02:09:01;;;;;;;10.43;7.15;;;10.80;99.90;;;;;;4880108;29;20040;-86
2023/04/30 02:11:28;;;;;;;8.48;6.60;;;10.80;99.90;;;;;;4872476;29;20044;-86
2023/04/30 02:13:54;;;;;;;9.23;7.25;;;10.70;99.90;;;;;;4877384;29;20044;-81
2023/04/30 02:16:21;;;;;;;10.60;7.50;;;10.80;99.90;;;;;;4895587;29;20394;-82
2023/04/30 02:18:47;;;;;;;9.32;7.68;;;10.80;99.90;;;;;;4877496;29;20053;-85
2023/04/30 02:21:13;;;;;;;11.88;7.28;;;10.80;99.90;;;;;;4891087;29;20052;-84
2023/04/30 02:23:40;;;;;;;12.07;7.63;;;10.80;99.90;;;;;;4896022;29;20044;-88
2023/04/30 02:26:07;;;;;;;12.77;7.30;;;10.70;99.90;;;;;;4880734;29;20044;-84
2023/04/30 02:28:33;;;;;;;8.60;7.07;;;10.70;99.90;;;;;;4897807;29;20032;-87
2023/04/30 02:31:00;;;;;;;11.13;7.55;;;10.80;99.90;;;;;;4897139;29;20033;-84
2023/04/30 02:33:26;;;;;;;10.93;7.47;;;10.70;99.90;;;;;;4882181;29;20036;-87
2023/04/30 02:35:54;;;;;;;11.05;7.13;;;10.70;99.90;;;;;;4893977;29;20055;-86
2023/04/30 02:38:20;;;;;;;10.82;7.47;;;10.70;99.90;;;;;;4871645;29;20055;-88
2023/04/30 02:40:46;;;;;;;10.30;7.38;;;10.70;99.90;;;;;;4888901;29;20078;-84
2023/04/30 02:43:12;;;;;;;9.00;7.18;;;10.70;99.90;;;;;;4881084;29;20478;-85
2023/04/30 02:45:39;;;;;;;10.38;6.75;;;10.70;99.90;;;;;;4888430;29;20059;-88
2023/04/30 02:48:05;;;;;;;10.20;7.82;;;10.70;99.90;;;;;;4896388;29;20048;-87
2023/04/30 02:50:32;;;;;;;8.63;7.10;;;10.70;99.90;;;;;;4891466;29;20375;-83
2023/04/30 02:52:58;;;;;;;8.25;7.22;;;10.70;99.90;;;;;;4872871;29;20060;-86
2023/04/30 02:55:24;;;;;;;11.27;7.68;;;10.60;99.90;;;;;;4878172;29;20374;-85
2023/04/30 02:57:51;;;;;;;8.35;6.72;;;10.70;99.90;;;;;;4897444;29;20060;-86
2023/04/30 03:00:17;;;;;;;9.82;7.32;;;10.70;99.90;;;;;;4876350;29;20048;-86
2023/04/30 03:02:44;;;;;;;11.32;8.25;;;10.60;99.90;;;;;;4880206;29;20072;-84
2023/04/30 03:05:10;;;;;;;10.38;7.53;;;10.60;99.90;;;;;;4860290;29;20049;-85
2023/04/30 03:07:36;;;;;;;9.05;6.95;;;10.60;99.90;;;;;;4878011;29;20041;-86
2023/04/30 03:10:03;;;;;;;13.95;8.80;;;10.60;99.90;;;;;;4887310;29;20041;-88
2023/04/30 03:12:29;;;;;;;10.15;7.82;;;10.60;99.90;;;;;;4872657;29;20040;-82
2023/04/30 03:14:55;;;;;;;11.60;8.65;;;10.60;99.90;;;;;;4894958;29;20387;-86
2023/04/30 03:17:23;;;;;;;10.05;8.25;;;10.60;99.90;;;;;;4887472;29;20044;-86
2023/04/30 03:19:50;;;;;;;12.18;7.63;;;10.60;99.90;;;;;;4886719;29;20325;-86
2023/04/30 03:22:22;;;;;;;13.77;8.88;;;10.60;99.90;;;;;;4895784;29;20406;-86
2023/04/30 03:24:48;;;;;;;12.45;7.93;;;10.60;99.90;;;;;;4864206;29;20040;-85
2023/04/30 03:27:15;;;;;;;10.05;8.75;;;10.50;99.90;;;;;;4877408;29;20045;-86
2023/04/30 03:29:42;;;;;;;11.73;8.13;;;10.50;99.90;;;;;;4887806;29;20406;-86
2023/04/30 03:32:08;;;;;;;11.20;8.55;;;10.60;99.90;;;;;;4897450;29;20032;-84
2023/04/30 03:34:34;;;;;;;11.05;7.85;;;10.50;99.90;;;;;;4893058;29;20152;-86
2023/04/30 03:37:00;;;;;;;10.68;8.18;;;10.50;99.90;;;;;;4892404;29;20048;-84
2023/04/30 03:39:27;;;;;;;14.65;9.15;;;10.40;99.90;;;;;;4880454;29;20048;-85
2023/04/30 03:41:53;;;;;;;14.40;8.57;;;10.50;99.90;;;;;;4894711;29;20028;-86
2023/04/30 03:44:19;;;;;;;10.88;7.97;;;10.40;99.90;;;;;;4896363;29;20040;-85
2023/04/30 03:46:45;;;;;;;11.45;8.85;;;10.40;99.90;;;;;;4877805;29;20475;-86
2023/04/30 03:49:11;;;;;;;13.82;9.50;;;10.50;1.00;;;;;;4880026;29;20048;-87
2023/04/30 03:51:40;;;;;;;13.23;9.02;;;10.50;99.90;;;;;;4886028;29;20044;-84
2023/04/30 03:54:07;;;;;;;11.50;8.52;;;10.50;99.90;;;;;;4895486;29;20040;-83
2023/04/30 03:56:34;;;;;;;12.65;9.18;;;10.40;1.00;;;;;;4892984;29;20049;-84
2023/04/30 03:59:01;;;;;;;14.68;9.43;;;10.40;1.00;;;;;;4895852;29;20477;-85
2023/04/30 04:01:29;;;;;;;11.93;8.82;;;10.40;1.00;;;;;;4864163;29;20051;-84
2023/04/30 04:03:56;;;;;;;12.75;9.23;;;10.40;1.00;;;;;;4878589;29;20501;-84
2023/04/30 04:06:22;;;;;;;11.48;8.52;;;10.40;1.00;;;;;;4878657;29;20052;-82
2023/04/30 04:08:48;;;;;;;14.63;9.00;;;10.30;1.00;;;;;;4894166;29;20032;-82
2023/04/30 04:11:15;;;;;;;9.27;7.28;;;10.40;1.00;;;;;;4895091;29;20047;-83
2023/04/30 04:13:44;;;;;;;14.23;8.90;;;10.40;99.90;;;;;;4884279;29;20037;-83
2023/04/30 04:16:12;;;;;;;11.65;8.95;;;10.40;1.00;;;;;;4863301;29;20044;-83
2023/04/30 04:18:38;;;;;;;14.05;8.07;;;10.50;99.90;;;;;;4864224;29;20045;-80
2023/04/30 04:21:05;;;;;;;10.68;8.20;;;10.40;99.90;;;;;;4874973;29;20041;-84
2023/04/30 04:23:31;;;;;;;10.45;7.90;;;10.40;99.90;;;;;;4885700;29;20408;-84
2023/04/30 04:25:59;;;;;;;8.95;7.35;;;10.40;99.90;;;;;;4886045;29;20053;-83
2023/04/30 04:28:26;;;;;;;9.85;8.00;;;10.50;99.90;;;;;;4863936;29;20466;-83
2023/04/30 04:30:52;;;;;;;13.40;8.10;;;10.50;99.90;;;;;;4894399;29;20039;-83
2023/04/30 04:33:18;;;;;;;10.75;8.15;;;10.60;99.90;;;;;;4889156;29;20367;-86
2023/04/30 04:35:44;;;;;;;13.07;8.13;;;10.60;99.90;;;;;;4885767;29;20059;-85
2023/04/30 04:38:11;;;;;;;12.65;7.38;;;10.60;99.90;;;;;;4891532;29;20044;-86
2023/04/30 04:40:38;;;;;;;8.98;7.80;;;10.60;99.90;;;;;;4863964;29;20351;-84
2023/04/30 04:43:06;;;;;;;9.65;7.50;;;10.60;99.90;;;;;;4893569;29;20358;-85
2023/04/30 04:45:32;;;;;;;10.63;6.50;;;10.60;99.90;;;;;;4878117;29;20040;-84
2023/04/30 04:47:59;;;;;;;9.68;7.18;;;10.70;99.90;;;;;;4882578;29;20044;-85
2023/04/30 04:50:26;;;;;;;11.40;8.15;;;10.70;99.90;;;;;;4897904;29;20044;-83
2023/04/30 04:52:52;;;;;;;9.10;8.18;;;10.80;99.90;;;;;;4878977;29;20049;-85
2023/04/30 04:55:19;;;;;;;12.57;8.32;;;10.80;99.90;;;;;;4880689;29;20064;-84
2023/04/30 04:57:45;;;;;;;11.98;7.95;;;10.80;99.90;;;;;;4897511;29;20410;-85
2023/04/30 05:00:12;;;;;;;12.15;7.72;;;10.80;99.90;;;;;;4898286;29;20037;-85
2023/04/30 05:02:38;;;;;;;12.00;8.32;;;10.90;99.90;;;;;;4879434;29;20502;-84
2023/04/30 05:05:05;;;;;;;12.10;7.68;;;10.90;99.90;;;;;;4878579;29;20049;-82
2023/04/30 05:07:33;;;;;;;11.10;7.57;;;11.10;99.90;;;;;;4880995;29;20052;-82
2023/04/30 05:10:00;;;;;;;7.80;6.70;;;11.70;99.90;;;;;;4879514;29;20466;-82
2023/04/30 05:12:26;;;;;;;11.73;7.20;;;11.80;99.90;;;;;;4898932;29;20390;-84
2023/04/30 05:14:52;;;;;;;8.40;6.68;;;12.00;99.90;;;;;;4897740;29;20043;-80
2023/04/30 05:17:18;;;;;;;10.90;6.97;;;12.60;99.90;;;;;;4897552;29;20045;-81
2023/04/30 05:19:46;;;;;;;9.05;6.90;;;12.40;99.90;;;;;;4896168;29;20092;-83
2023/04/30 05:22:13;;;;;;;9.30;6.93;;;12.10;99.90;;;;;;4896730;29;20040;-85
2023/04/30 05:24:39;;;;;;;8.93;6.55;;;12.00;99.90;;;;;;4897421;29;20044;-83
2023/04/30 05:27:05;;;;;;;8.75;6.85;;;11.90;99.90;;;;;;4898593;29;20067;-83
2023/04/30 05:29:31;;;;;;;8.93;6.47;;;11.90;99.90;;;;;;4897067;29;20035;-83
2023/04/30 05:31:57;;;;;;;9.10;6.90;;;12.00;99.90;;;;;;4898585;29;20039;-82
2023/04/30 05:34:24;;;;;;;8.25;6.07;;;12.10;99.90;;;;;;4897424;29;20048;-83
2023/04/30 05:36:50;;;;;;;7.70;6.72;;;12.10;99.90;;;;;;4895260;29;20047;-81
2023/04/30 05:39:16;;;;;;;9.55;6.90;;;12.10;99.90;;;;;;4897464;29;20033;-83
2023/04/30 05:41:42;;;;;;;11.35;6.55;;;12.10;99.90;;;;;;4897171;29;20036;-81
2023/04/30 05:44:08;;;;;;;10.07;6.45;;;12.10;99.90;;;;;;4897988;29;20036;-81
2023/04/30 05:46:35;;;;;;;9.23;5.97;;;12.20;99.90;;;;;;4896410;29;20402;-80
2023/04/30 05:49:01;;;;;;;9.90;6.03;;;12.20;99.90;;;;;;4898561;29;20394;-83
2023/04/30 05:51:27;;;;;;;8.10;5.93;;;12.20;99.90;;;;;;4896067;29;20035;-82
2023/04/30 05:53:53;;;;;;;9.40;6.40;;;12.20;99.90;;;;;;4895144;29;20474;-81
2023/04/30 05:56:20;;;;;;;14.05;6.90;;;12.30;99.90;;;;;;4893945;29;20371;-82
2023/04/30 05:58:46;;;;;;;10.07;7.28;;;12.40;99.90;;;;;;4896102;29;20028;-78
2023/04/30 06:01:12;;;;;;;8.15;6.25;;;12.30;99.90;;;;;;4895389;29;20028;-80
2023/04/30 06:03:38;;;;;;;12.65;7.05;;;12.40;99.90;;;;;;4880123;29;20037;-79
2023/04/30 06:06:05;;;;;;;7.97;5.90;;;12.40;99.90;;;;;;4880204;29;20056;-81
2023/04/30 06:08:31;;;;;;;9.27;6.20;;;12.60;99.90;;;;;;4898147;29;20040;-79
2023/04/30 06:10:57;;;;;;;7.38;5.97;;;12.60;99.90;;;;;;4896825;29;20028;-82
2023/04/30 06:13:23;;;;;;;10.95;6.03;;;12.70;99.90;;;;;;4898028;29;20028;-81
2023/04/30 06:15:49;;;;;;;8.13;5.93;;;12.90;99.90;;;;;;4896492;29;20048;-82
2023/04/30 06:18:15;;;;;;;9.63;6.50;;;13.00;99.90;;;;;;4897433;29;20478;-79
2023/04/30 06:20:41;;;;;;;10.07;6.03;;;13.00;99.90;;;;;;4896309;29;20048;-81
2023/04/30 06:23:08;;;;;;;9.63;5.65;;;12.90;99.90;;;;;;4895665;29;20047;-78
2023/04/30 06:25:34;;;;;;;7.97;5.68;;;14.00;99.90;;;;;;4894475;29;20036;-86
2023/04/30 06:28:00;;;;;;;10.70;5.22;;;14.90;27.50;;;;;;4894600;29;20426;-79
2023/04/30 06:30:27;;;;;;;6.43;4.78;;;15.60;20.80;;;;;;4895504;29;20029;-79
2023/04/30 06:32:53;;;;;;;7.22;4.85;;;15.90;2.20;;;;;;4897403;29;20040;-82
2023/04/30 06:35:19;;;;;;;8.52;4.38;;;15.30;6.50;;;;;;4896166;29;20033;-78
2023/04/30 06:37:45;;;;;;;6.55;5.47;;;14.30;37.50;;;;;;4895230;29;20048;-82
2023/04/30 06:40:11;;;;;;;9.20;5.25;;;14.10;55.30;;;;;;4895768;29;20032;-80
2023/04/30 06:42:38;;;;;;;6.20;5.03;;;13.70;70.80;;;;;;4896232;29;20037;-78
2023/04/30 06:45:05;;;;;;;6.35;4.82;;;13.40;93.00;;;;;;4879972;29;20048;-79
2023/04/30 06:47:36;;;;;;;7.43;5.25;;;13.50;99.90;;;;;;4896940;29;20040;-82
2023/04/30 06:50:03;;;;;;;6.78;4.60;;;13.30;95.80;;;;;;4894228;29;20505;-78
2023/04/30 06:52:30;;;;;;;7.75;6.05;;;13.30;99.90;;;;;;4859938;29;20052;-79
2023/04/30 06:54:56;;;;;;;9.07;5.75;;;13.30;99.90;;;;;;4891757;29;20048;-84
2023/04/30 06:57:23;;;;;;;8.50;5.47;;;13.40;99.90;;;;;;4878650;29;20067;-79
2023/04/30 06:59:49;;;;;;;6.15;5.00;;;13.60;97.80;;;;;;4894149;29;20040;-82
2023/04/30 07:02:16;;;;;;;8.35;5.55;;;13.80;91.90;;;;;;4877239;29;20060;-80
2023/04/30 07:04:42;;;;;;;8.80;5.00;;;13.90;94.10;;;;;;4893551;29;20051;-79
2023/04/30 07:07:08;;;;;;;7.25;5.07;;;14.10;89.30;;;;;;4886549;29;20503;-78
2023/04/30 07:09:35;;;;;;;7.85;5.43;;;14.10;69.40;;;;;;4895303;29;20390;-78
2023/04/30 07:12:02;;;;;;;8.13;5.25;;;14.10;70.50;;;;;;4895280;29;20037;-79
2023/04/30 07:14:28;;;;;;;9.40;5.10;;;14.10;65.10;;;;;;4886118;29;20060;-79
2023/04/30 07:16:55;;;;;;;10.60;5.22;;;14.00;63.00;;;;;;4871169;29;20075;-80
2023/04/30 07:19:22;;;;;;;7.47;5.40;;;14.10;71.10;;;;;;4880216;29;20071;-78
2023/04/30 07:21:48;;;;;;;6.40;4.55;;;14.00;59.40;;;;;;4895584;29;20040;-79
2023/04/30 07:24:14;;;;;;;8.45;5.22;;;14.30;51.20;;;;;;4888765;29;20048;-77
2023/04/30 07:26:41;;;;;;;7.88;5.22;;;14.40;33.70;;;;;;4885129;29;20106;-79
2023/04/30 07:29:07;;;;;;;7.18;4.47;;;14.80;36.60;;;;;;4894709;29;20466;-77
2023/04/30 07:31:33;;;;;;;8.38;4.22;;;15.20;12.70;;;;;;4892269;29;20367;-76
2023/04/30 07:33:59;;;;;;;7.93;4.53;;;15.30;6.50;;;;;;4893382;29;20236;-80
2023/04/30 07:36:26;;;;;;;5.63;3.85;;;16.00;1.00;;;;;;4888009;29;20048;-77
2023/04/30 07:38:52;;;;;;;6.65;4.93;;;16.60;1.00;;;;;;4878201;29;20065;-77
2023/04/30 07:41:18;;;;;;;7.15;4.30;;;17.00;1.00;;;;;;4894583;29;20037;-78
2023/04/30 07:43:44;;;;;;;6.60;3.50;;;16.70;1.00;;;;;;4894127;29;20138;-78
2023/04/30 07:46:10;;;;;;;6.18;3.95;;;17.20;1.00;;;;;;4893551;29;20045;-78
2023/04/30 07:48:36;;;;;;;7.43;4.18;;;16.90;1.00;;;;;;4894912;29;20040;-78
2023/04/30 07:51:03;;;;;;;6.88;4.50;;;16.80;1.00;;;;;;4894690;29;20459;-77
2023/04/30 07:53:30;;;;;;;5.55;4.13;;;16.80;1.00;;;;;;4896964;29;20048;-80
2023/04/30 07:55:56;;;;;;;9.30;4.93;;;16.80;1.00;;;;;;4886281;29;20417;-77
2023/04/30 07:58:22;;;;;;;5.22;3.22;;;16.90;1.00;;;;;;4896342;29;20388;-77
2023/04/30 08:00:48;;;;;;;5.82;3.60;;;17.00;1.00;;;;;;4862487;29;20045;-80
2023/04/30 08:03:14;;;;;;;5.72;4.10;;;17.20;1.00;;;;;;4895207;29;20036;-76
2023/04/30 08:05:41;;;;;;;4.78;3.65;;;17.40;1.00;;;;;;4875254;29;20036;-78
2023/04/30 08:08:07;;;;;;;5.00;4.32;;;17.80;1.00;;;;;;4878179;29;20024;-77
2023/04/30 08:10:33;;;;;;;6.50;3.67;;;17.40;1.00;;;;;;4893620;29;20377;-81
2023/04/30 08:13:00;;;;;;;7.30;3.72;;;17.00;1.00;;;;;;4878267;29;20035;-77
2023/04/30 08:15:26;;;;;;;7.20;4.28;;;17.00;1.00;;;;;;4894157;29;20028;-78
2023/04/30 08:17:52;;;;;;;7.15;4.30;;;17.20;1.00;;;;;;4895170;29;20036;-75
2023/04/30 08:20:18;;;;;;;4.70;3.42;;;16.80;1.00;;;;;;4880044;29;20039;-81
2023/04/30 08:22:45;;;;;;;6.43;3.72;;;16.70;1.00;;;;;;4878841;29;20049;-77
2023/04/30 08:25:11;;;;;;;4.72;3.70;;;17.00;1.00;;;;;;4878251;29;20037;-78
2023/04/30 08:27:38;;;;;;;7.25;3.63;;;18.00;1.00;;;;;;4875063;29;20041;-83
2023/04/30 08:30:06;;;;;;;7.25;3.85;;;18.10;1.00;;;;;;4879160;29;20032;-83
2023/04/30 08:32:35;;;;;;;4.80;3.70;;;18.40;1.00;;;;;;4877641;29;20041;-80
2023/04/30 08:35:06;;;;;;;4.88;3.10;;;18.10;1.00;;;;;;4894674;29;20351;-88
2023/04/30 08:37:32;;;;;;;5.47;3.28;;;17.40;1.00;;;;;;4895463;29;20041;-89
2023/04/30 08:39:59;;;;;;;10.18;4.28;;;18.40;1.00;;;;;;4877324;29;20390;-89
2023/04/30 08:42:34;;;;;;;4.38;2.95;;;18.60;1.00;;;;;;4882044;29;20036;-87
2023/04/30 08:45:02;;;;;;;4.82;2.45;;;18.50;1.00;;;;;;4880019;29;20052;-92
2023/04/30 08:47:28;;;;;;;5.07;3.13;;;19.20;1.00;;;;;;4878528;29;20036;-79
2023/04/30 08:49:55;;;;;;;4.35;2.78;;;18.60;1.00;;;;;;4893716;29;20378;-76
2023/04/30 08:52:21;;;;;;;4.78;2.88;;;19.00;1.00;;;;;;4895156;29;20044;-74
2023/04/30 08:54:50;;;;;;;3.97;2.70;;;19.20;1.00;;;;;;4891617;29;20052;-83
2023/04/30 08:57:17;;;;;;;4.40;3.53;;;18.30;1.00;;;;;;4876200;29;20463;-79
2023/04/30 08:59:46;;;;;;;6.45;2.80;;;17.70;1.00;;;;;;4895292;29;20044;-82
2023/04/30 09:02:13;;;;;;;4.97;2.70;;;17.10;1.00;;;;;;4893252;29;20033;-82
2023/04/30 09:04:39;;;;;;;5.20;2.53;;;16.80;1.00;;;;;;4893693;29;20470;-79
2023/04/30 09:07:06;;;;;;;6.50;2.30;;;16.80;1.00;;;;;;4878772;29;20505;-78
2023/04/30 09:09:37;;;;;;;6.63;2.40;;;17.00;1.00;;;;;;4854776;29;20037;-79
2023/04/30 09:12:30;;;;;;;3.95;3.03;;;16.90;1.00;;;;;;4871108;29;20089;-78
2023/04/30 09:15:04;;;;;;;3.30;2.00;;;16.80;1.00;;;;;;4889056;29;20036;-77
2023/04/30 09:17:31;;;;;;;5.43;2.08;;;16.70;1.00;;;;;;4894472;29;20102;-81
2023/04/30 09:20:11;;;;;;;3.95;2.00;;;16.60;1.00;;;;;;4886143;29;20041;-81
2023/04/30 09:22:39;;;;;;;4.53;2.50;;;16.40;1.00;;;;;;4894772;29;20041;-77
2023/04/30 09:25:07;;;;;;;4.68;2.55;;;16.40;1.00;;;;;;4876564;29;20044;-82
2023/04/30 09:27:34;;;;;;;6.88;3.03;;;16.50;1.00;;;;;;4895064;29;20051;-82
2023/04/30 09:30:00;;;;;;;5.40;3.17;;;16.70;1.00;;;;;;4894702;29;20040;-79
2023/04/30 09:32:27;;;;;;;6.15;3.45;;;16.70;1.00;;;;;;4894518;29;20028;-81
2023/04/30 09:34:53;;;;;;;11.55;4.40;;;16.70;1.00;;;;;;4894316;29;20380;-81
2023/04/30 09:37:20;;;;;;;9.45;4.28;;;16.70;1.00;;;;;;4896102;29;20039;-78
2023/04/30 09:39:55;;;;;;;5.35;2.05;;;16.60;1.00;;;;;;4896375;29;20048;-80
2023/04/30 09:42:21;;;;;;;8.35;4.03;;;16.80;1.00;;;;;;4896554;29;20028;-82
2023/04/30 09:44:48;;;;;;;5.40;2.80;;;16.80;1.00;;;;;;4894919;29;20348;-84
2023/04/30 09:47:16;;;;;;;5.88;3.03;;;17.10;1.00;;;;;;4896457;29;20964;-81
2023/04/30 09:49:52;;;;;;;5.20;3.30;;;17.00;1.00;;;;;;4897736;29;20032;-79
2023/04/30 09:52:19;;;;;;;4.80;2.78;;;17.10;1.00;;;;;;4897272;29;20032;-79
2023/04/30 09:54:46;;;;;;;5.07;2.75;;;17.30;1.00;;;;;;4895751;29;20037;-82
2023/04/30 09:57:14;;;;;;;5.20;3.20;;;17.70;1.00;;;;;;4896600;29;20072;-82
2023/04/30 09:59:45;;;;;;;3.55;2.35;;;18.20;1.00;;;;;;4898766;29;20454;-78
2023/04/30 10:02:15;;;;;;;2.45;1.70;;;17.80;1.00;;;;;;4897206;29;20032;-81
2023/04/30 10:04:43;;;;;;;4.85;1.40;;;17.80;1.00;;;;;;4895091;29;20040;-87
2023/04/30 10:07:18;;;;;;;4.20;2.13;;;17.60;1.00;;;;;;4881820;29;20051;-80
2023/04/30 10:09:58;;;;;;;4.00;1.73;;;17.50;1.00;;;;;;4892550;29;20036;-78
2023/04/30 10:12:47;;;;;;;3.97;1.98;;;17.40;1.00;;;;;;4894493;29;20024;-80
2023/04/30 10:15:29;;;;;;;2.92;1.60;;;17.60;1.00;;;;;;4894600;29;20036;-78
2023/04/30 10:18:01;;;;;;;3.88;2.33;;;17.50;1.00;;;;;;4897722;29;20054;-80
2023/04/30 10:20:29;;;;;;;2.92;1.73;;;17.60;1.00;;;;;;4897369;29;20040;-79
2023/04/30 10:22:56;;;;;;;7.68;3.28;;;17.90;1.00;;;;;;4894083;29;20456;-78
2023/04/30 10:25:22;;;;;;;4.55;3.00;;;17.80;1.00;;;;;;4895652;29;20040;-77
2023/04/30 10:27:49;;;;;;;3.20;2.65;;;17.30;1.00;;;;;;4897741;29;20041;-79
2023/04/30 10:30:16;;;;;;;3.83;2.70;;;17.10;1.00;;;;;;4898263;29;20040;-79
2023/04/30 10:33:04;;;;;;;4.97;3.22;;;17.50;1.00;;;;;;4897575;29;20028;-80
2023/04/30 10:35:43;;;;;;;4.03;2.05;;;17.50;1.00;;;;;;4891271;29;20029;-83
2023/04/30 10:38:18;;;;;;;9.13;2.30;;;17.60;1.00;;;;;;4882318;29;20436;-79
2023/04/30 10:40:46;;;;;;;4.32;2.03;;;17.30;1.00;;;;;;4892597;29;20036;-79
2023/04/30 10:43:13;;;;;;;3.70;1.63;;;17.20;1.00;;;;;;4894054;29;20025;-81
2023/04/30 10:45:45;;;;;;;3.45;2.38;;;17.00;1.00;;;;;;4876786;29;20057;-76
2023/04/30 10:48:14;;;;;;;3.22;1.80;;;16.90;1.00;;;;;;4894461;29;20042;-79
2023/04/30 10:50:42;;;;;;;4.57;4.10;;;17.00;1.00;;;;;;4896160;29;20032;-81
2023/04/30 10:53:15;;;;;;;3.70;1.98;;;17.10;1.00;;;;;;4895682;29;20039;-83
2023/04/30 10:56:08;;;;;;;2.90;1.55;;;17.30;1.00;;;;;;4892457;29;20029;-79
2023/04/30 10:58:37;;;;;;;4.25;2.40;;;17.40;1.00;;;;;;4872074;29;20044;-77
2023/04/30 11:01:21;;;;;;;3.17;2.22;;;17.40;1.00;;;;;;4877479;29;20037;-78
2023/04/30 11:04:10;;;;;;;4.15;2.35;;;17.80;1.00;;;;;;4877402;29;20039;-77
2023/04/30 11:06:51;;;;;;;7.03;2.15;;;18.00;1.00;;;;;;4874239;29;20044;-77
2023/04/30 11:09:17;;;;;;;3.13;2.72;;;17.50;1.00;;;;;;4870553;29;20442;-77
2023/04/30 11:11:44;;;;;;;3.35;1.75;;;17.40;1.00;;;;;;4879413;29;20029;-80
2023/04/30 11:14:11;;;;;;;3.70;2.28;;;17.70;1.00;;;;;;4888789;29;20056;-77
2023/04/30 11:16:37;;;;;;;3.55;1.85;;;18.00;1.00;;;;;;4894530;29;20033;-78
2023/04/30 11:19:13;;;;;;;3.33;1.75;;;17.90;1.00;;;;;;4885607;29;20025;-78
2023/04/30 11:22:04;;;;;;;2.88;1.77;;;18.00;1.00;;;;;;4857608;29;20041;-77
2023/04/30 11:24:52;;;;;;;5.43;2.08;;;17.90;1.00;;;;;;4876550;29;20033;-81
2023/04/30 11:27:26;;;;;;;3.72;2.28;;;18.10;1.00;;;;;;4876736;29;20043;-78
2023/04/30 11:29:54;;;;;;;2.90;1.95;;;18.30;1.00;;;;;;4876254;29;20045;-77
2023/04/30 11:32:23;;;;;;;2.80;1.80;;;18.60;1.00;;;;;;4868771;29;20040;-77
2023/04/30 11:34:50;;;;;;;3.42;2.00;;;18.60;1.00;;;;;;4870289;29;20043;-77
2023/04/30 11:37:29;;;;;;;2.90;1.48;;;18.30;1.00;;;;;;4875916;29;20044;-78
2023/04/30 11:39:57;;;;;;;4.35;1.88;;;18.20;1.00;;;;;;4877463;29;20036;-78
2023/04/30 11:42:25;;;;;;;3.40;1.75;;;18.60;1.00;;;;;;4874942;29;20048;-91
2023/04/30 11:44:51;;;;;;;3.72;3.28;;;18.70;1.00;;;;;;4874693;29;20037;-86
2023/04/30 11:47:17;;;;;;;2.78;1.58;;;18.90;1.00;;;;;;4874174;29;20037;-87
2023/04/30 11:49:43;;;;;;;4.38;1.90;;;19.20;1.00;;;;;;4871383;29;20045;-85
2023/04/30 11:52:12;;;;;;;2.45;1.63;;;19.30;1.00;;;;;;4876837;29;20037;-83
2023/04/30 11:54:38;;;;;;;2.53;1.33;;;19.10;1.00;;;;;;4872570;29;20045;-77
2023/04/30 11:57:05;;;;;;;2.00;1.10;;;19.00;1.00;;;;;;4883185;29;20067;-78
2023/04/30 11:59:38;;;;;;;3.05;1.38;;;19.50;1.00;;;;;;4896394;29;20036;-80
2023/04/30 12:02:06;;;;;;;3.38;1.17;;;19.60;1.00;;;;;;4894567;29;20098;-78
2023/04/30 12:04:32;;;;;;;5.00;1.27;;;19.50;1.00;;;;;;4896673;29;20050;-80
2023/04/30 12:06:59;;;;;;;2.53;1.20;;;19.00;1.00;;;;;;4895892;29;20040;-76
2023/04/30 12:09:25;;;;;;;1.38;0.93;;;18.80;1.00;;;;;;4896661;29;20036;-79
2023/04/30 12:11:51;;;;;;;3.80;1.10;;;19.30;1.00;;;;;;4894663;29;20032;-79
2023/04/30 12:14:17;;;;;;;2.97;1.30;;;19.30;1.00;;;;;;4896497;29;20370;-79
2023/04/30 12:16:49;;;;;;;3.53;0.95;;;19.00;1.00;;;;;;4895003;29;20032;-80
2023/04/30 12:19:16;;;;;;;2.60;1.13;;;19.20;1.00;;;;;;4894507;29;20036;-75
2023/04/30 12:21:47;;;;;;;2.35;1.00;;;19.80;1.00;;;;;;4894617;29;20403;-78
2023/04/30 12:24:15;;;;;;;2.47;1.27;;;20.20;1.00;;;;;;4891982;29;20198;-82
2023/04/30 12:26:42;;;;;;;2.80;1.10;;;19.90;1.00;;;;;;4900740;29;20033;-80
2023/04/30 12:29:10;;;;;;;1.90;1.10;;;20.00;1.00;;;;;;4884877;29;20048;-80
2023/04/30 12:31:37;;;;;;;2.97;1.55;;;19.90;1.00;;;;;;4880487;29;20036;-77
2023/04/30 12:34:06;;;;;;;1.92;0.90;;;20.10;1.00;;;;;;4873644;29;20378;-82
2023/04/30 12:36:35;;;;;;;1.05;0.88;;;20.20;1.00;;;;;;4897002;29;20037;-79
2023/04/30 12:39:06;;;;;;;1.63;1.08;;;19.70;1.00;;;;;;4896032;29;20474;-77
2023/04/30 12:41:40;;;;;;;1.23;0.80;;;19.30;1.00;;;;;;4894657;29;20040;-79
2023/04/30 12:44:40;;;;;;;2.42;1.02;;;19.30;1.00;;;;;;4886664;29;20059;-81
2023/04/30 12:47:08;;;;;;;;;;;19.60;1.00;;;;;;4879509;29;20402;-78
2023/04/30 12:49:35;;;;;;;1.70;1.10;;;19.90;1.00;;;;;;4894005;29;19952;-80
2023/04/30 12:52:07;;;;;;;2.38;1.00;;;20.10;1.00;;;;;;4894262;29;20059;-81
2023/04/30 12:54:34;;;;;;;2.45;0.75;;;20.20;1.00;;;;;;4892419;29;20041;-78